Time;durP1;ratioP1;P1;durP2;ratioP2;P2;SDS_P1;SDS_P2;PMS_P1;PMS_P2;Temp;Humidity;BMP_temperature;BMP_pressure;BME280_temperature;BME280_humidity;BME280_pressure;Samples;Min_cycle;Max_cycle;Signal;HPM_P1;HPM_P2
2021/05/30 00:02:08;;;;;;;2.40;2.20;;;10.40;64.10;;;;;;5014600;28;20037;-65
2021/05/30 00:04:36;;;;;;;2.33;2.13;;;10.40;64.30;;;;;;5013693;28;20814;-65
2021/05/30 00:07:07;;;;;;;3.25;2.28;;;10.30;64.80;;;;;;5012203;28;20036;-65
2021/05/30 00:09:38;;;;;;;2.70;2.28;;;10.30;65.00;;;;;;5014128;28;20496;-65
2021/05/30 00:12:05;;;;;;;3.45;2.35;;;10.20;65.20;;;;;;5013747;28;20042;-65
2021/05/30 00:14:31;;;;;;;3.95;2.08;;;10.20;65.10;;;;;;5016441;28;20082;-65
2021/05/30 00:16:57;;;;;;;2.40;2.20;;;10.10;65.20;;;;;;5014854;28;20127;-64
2021/05/30 00:19:25;;;;;;;2.28;2.08;;;10.10;65.30;;;;;;5018064;28;20662;-65
2021/05/30 00:21:53;;;;;;;2.97;1.90;;;10.00;65.40;;;;;;5016691;28;20401;-64
2021/05/30 00:24:21;;;;;;;2.22;2.03;;;10.00;65.50;;;;;;5013293;28;20030;-64
2021/05/30 00:26:48;;;;;;;3.50;2.08;;;10.00;65.70;;;;;;5012839;28;20029;-65
2021/05/30 00:29:21;;;;;;;1.98;1.77;;;9.90;65.70;;;;;;5014381;28;20041;-65
2021/05/30 00:31:49;;;;;;;5.13;2.03;;;9.90;66.00;;;;;;5015446;28;20034;-65
2021/05/30 00:34:19;;;;;;;2.03;1.85;;;9.80;65.90;;;;;;5014740;28;20030;-65
2021/05/30 00:36:47;;;;;;;3.72;2.00;;;9.80;65.70;;;;;;5013169;28;20034;-65
2021/05/30 00:39:16;;;;;;;2.97;2.00;;;9.80;66.30;;;;;;5019927;28;20057;-64
2021/05/30 00:41:44;;;;;;;4.72;2.22;;;9.70;66.30;;;;;;5010900;28;20041;-65
2021/05/30 00:44:25;;;;;;;3.40;2.05;;;9.70;66.40;;;;;;5017031;28;20468;-65
2021/05/30 00:46:55;;;;;;;2.30;2.10;;;9.70;67.60;;;;;;5010362;28;20029;-65
2021/05/30 00:49:22;;;;;;;3.70;2.17;;;9.60;66.50;;;;;;5014476;28;20649;-65
2021/05/30 00:51:50;;;;;;;4.10;2.17;;;9.60;66.60;;;;;;5016424;28;20029;-64
2021/05/30 00:54:20;;;;;;;4.07;2.15;;;9.70;66.70;;;;;;5015799;28;20411;-64
2021/05/30 00:56:49;;;;;;;4.57;2.00;;;9.60;67.00;;;;;;5014101;28;20033;-65
2021/05/30 00:59:17;;;;;;;2.35;2.10;;;9.60;66.70;;;;;;5016025;28;20497;-64
2021/05/30 01:01:49;;;;;;;2.17;1.85;;;9.50;67.00;;;;;;5015458;28;20515;-65
2021/05/30 01:04:16;;;;;;;2.47;2.28;;;9.50;67.40;;;;;;5013802;28;20030;-64
2021/05/30 01:06:42;;;;;;;2.70;2.33;;;9.50;66.90;;;;;;5010701;28;20034;-64
2021/05/30 01:09:10;;;;;;;2.78;1.95;;;9.40;66.90;;;;;;5016576;28;20124;-66
2021/05/30 01:11:38;;;;;;;2.50;2.30;;;9.40;67.00;;;;;;5007916;28;20034;-65
2021/05/30 01:14:07;;;;;;;5.07;2.50;;;9.40;67.20;;;;;;5012027;28;20030;-65
2021/05/30 01:16:33;;;;;;;2.67;2.47;;;9.30;67.60;;;;;;5011812;28;20036;-64
2021/05/30 01:19:00;;;;;;;3.10;2.45;;;9.30;67.40;;;;;;5014408;28;20042;-66
2021/05/30 01:21:32;;;;;;;2.58;2.38;;;9.20;67.70;;;;;;5013213;28;20033;-65
2021/05/30 01:24:00;;;;;;;3.88;2.50;;;9.20;67.80;;;;;;5016404;28;20082;-65
2021/05/30 01:26:28;;;;;;;2.53;2.33;;;9.20;68.10;;;;;;5014752;28;20089;-64
2021/05/30 01:28:56;;;;;;;4.05;2.50;;;9.20;68.00;;;;;;5015442;28;20591;-65
2021/05/30 01:31:23;;;;;;;2.47;2.20;;;9.10;67.90;;;;;;5013406;28;20034;-64
2021/05/30 01:33:50;;;;;;;2.33;2.00;;;9.10;68.00;;;;;;5011997;28;20037;-64
2021/05/30 01:36:18;;;;;;;5.63;2.30;;;9.10;68.00;;;;;;5014067;28;20025;-65
2021/05/30 01:38:44;;;;;;;2.20;2.00;;;9.10;68.00;;;;;;5012593;28;20034;-63
2021/05/30 01:41:12;;;;;;;2.53;2.28;;;9.00;68.10;;;;;;5009783;28;20092;-65
2021/05/30 01:43:37;;;;;;;3.00;2.17;;;9.00;68.10;;;;;;5014456;28;20034;-65
2021/05/30 01:46:05;;;;;;;2.20;2.00;;;9.00;68.10;;;;;;5011085;28;20037;-64
2021/05/30 01:48:33;;;;;;;3.00;2.00;;;9.00;68.10;;;;;;5014391;28;20046;-65
2021/05/30 01:50:59;;;;;;;3.15;2.20;;;8.90;69.10;;;;;;5011645;28;20030;-65
2021/05/30 01:53:35;;;;;;;4.00;2.08;;;8.90;68.30;;;;;;5013801;28;20044;-64
2021/05/30 01:58:32;;;;;;;2.13;2.03;;;8.90;68.30;;;;;;5014017;28;20058;-65
2021/05/30 02:01:03;;;;;;;2.80;2.05;;;8.90;68.40;;;;;;5028537;28;20443;-65
2021/05/30 02:03:29;;;;;;;2.22;1.92;;;8.90;68.60;;;;;;5014425;28;20026;-65
2021/05/30 02:05:58;;;;;;;3.30;2.05;;;8.90;68.30;;;;;;5013936;28;20103;-64
2021/05/30 02:08:25;;;;;;;1.90;1.80;;;8.90;68.40;;;;;;5006943;28;20191;-66
2021/05/30 02:10:50;;;;;;;2.00;1.77;;;8.90;68.20;;;;;;5014687;28;20451;-65
2021/05/30 02:13:22;;;;;;;2.20;2.00;;;8.90;68.10;;;;;;5011343;28;20546;-64
2021/05/30 02:15:47;;;;;;;2.33;2.00;;;8.90;68.20;;;;;;5028068;28;20860;-65
2021/05/30 02:18:13;;;;;;;2.35;2.05;;;8.90;68.20;;;;;;5014011;28;20518;-65
2021/05/30 02:20:40;;;;;;;2.45;1.92;;;8.90;68.20;;;;;;5014426;28;20034;-64
2021/05/30 02:23:14;;;;;;;2.92;1.90;;;8.90;68.30;;;;;;5014801;28;20034;-65
2021/05/30 02:25:40;;;;;;;2.10;1.90;;;8.80;68.80;;;;;;5019070;28;20404;-65
2021/05/30 02:28:06;;;;;;;2.10;1.90;;;8.80;68.30;;;;;;5018847;28;20040;-65
2021/05/30 02:30:32;;;;;;;2.65;2.05;;;8.70;68.20;;;;;;5017182;28;20034;-65
2021/05/30 02:33:03;;;;;;;2.30;2.00;;;8.70;68.40;;;;;;5020975;28;20500;-65
2021/05/30 02:35:33;;;;;;;2.75;2.00;;;8.70;68.80;;;;;;5018301;28;20026;-64
2021/05/30 02:37:59;;;;;;;2.50;2.30;;;8.60;68.80;;;;;;5018049;28;20068;-65
2021/05/30 02:40:25;;;;;;;3.65;2.05;;;8.60;68.60;;;;;;5018574;28;20728;-66
2021/05/30 02:42:53;;;;;;;2.63;1.98;;;8.60;68.70;;;;;;5020484;28;20037;-65
2021/05/30 02:45:20;;;;;;;4.95;1.80;;;8.60;68.80;;;;;;5020606;28;20871;-65
2021/05/30 02:47:47;;;;;;;2.50;2.00;;;8.60;68.70;;;;;;5020292;28;20041;-65
2021/05/30 02:50:12;;;;;;;17.65;2.35;;;8.60;68.70;;;;;;5016409;28;20037;-64
2021/05/30 02:52:43;;;;;;;9.73;2.33;;;8.60;68.60;;;;;;5012170;28;20041;-64
2021/05/30 02:55:11;;;;;;;2.85;2.03;;;8.60;68.50;;;;;;5017742;28;20037;-65
2021/05/30 02:57:39;;;;;;;3.10;2.28;;;8.70;68.40;;;;;;5017419;28;20045;-66
2021/05/30 03:00:09;;;;;;;3.40;2.10;;;8.70;68.40;;;;;;5015533;28;20034;-64
2021/05/30 03:02:37;;;;;;;2.33;2.13;;;8.70;68.40;;;;;;5018258;28;20049;-65
2021/05/30 03:05:07;;;;;;;3.10;2.00;;;8.70;68.30;;;;;;5023719;28;20037;-64
2021/05/30 03:07:37;;;;;;;2.03;1.92;;;8.70;68.10;;;;;;5013895;28;20116;-65
2021/05/30 03:10:09;;;;;;;4.68;2.00;;;8.70;68.10;;;;;;5014307;28;20041;-65
2021/05/30 03:12:39;;;;;;;2.45;1.85;;;8.70;68.00;;;;;;5011939;28;20062;-65
2021/05/30 03:15:08;;;;;;;3.80;2.00;;;8.60;68.10;;;;;;5019987;28;20047;-65
2021/05/30 03:17:33;;;;;;;2.58;2.10;;;8.60;68.00;;;;;;5016498;28;20038;-65
2021/05/30 03:20:02;;;;;;;9.00;2.17;;;8.50;68.00;;;;;;5015547;28;20559;-66
2021/05/30 03:22:35;;;;;;;11.48;2.50;;;8.50;68.10;;;;;;5017178;28;20607;-65
2021/05/30 03:25:06;;;;;;;3.00;1.90;;;8.50;68.10;;;;;;5015051;28;20041;-65
2021/05/30 03:27:34;;;;;;;2.50;1.80;;;8.50;68.10;;;;;;5014915;28;20033;-64
2021/05/30 03:30:02;;;;;;;3.45;2.30;;;8.50;68.20;;;;;;5013666;28;20040;-64
2021/05/30 03:32:30;;;;;;;5.22;2.20;;;8.50;68.10;;;;;;5014158;28;20030;-64
2021/05/30 03:34:55;;;;;;;4.85;2.05;;;8.60;68.00;;;;;;5014661;28;20507;-65
2021/05/30 03:37:26;;;;;;;2.20;2.00;;;8.60;68.70;;;;;;5017740;28;20106;-65
2021/05/30 03:39:55;;;;;;;3.55;2.20;;;8.60;67.90;;;;;;5014060;28;20037;-64
2021/05/30 03:42:26;;;;;;;2.10;1.80;;;8.60;67.60;;;;;;5019547;28;20087;-64
2021/05/30 03:44:58;;;;;;;1.80;1.70;;;8.60;67.70;;;;;;5016670;28;20041;-64
2021/05/30 03:47:26;;;;;;;2.53;2.05;;;8.60;67.60;;;;;;5016305;28;20175;-65
2021/05/30 03:49:52;;;;;;;2.30;2.10;;;8.60;67.40;;;;;;5028740;28;20598;-64
2021/05/30 03:52:24;;;;;;;2.15;1.90;;;8.60;67.50;;;;;;5015394;28;20029;-65
2021/05/30 03:54:52;;;;;;;2.65;2.13;;;8.60;67.70;;;;;;5014917;28;20034;-64
2021/05/30 03:57:20;;;;;;;2.55;2.28;;;8.60;67.60;;;;;;5017227;28;20033;-66
2021/05/30 03:59:48;;;;;;;31.90;14.02;;;8.50;67.60;;;;;;5016758;28;20548;-64
2021/05/30 04:02:15;;;;;;;14.95;6.80;;;8.50;67.60;;;;;;5014075;28;20419;-65
2021/05/30 04:04:41;;;;;;;5.68;3.90;;;8.50;67.60;;;;;;5013994;28;20034;-64
2021/05/30 04:07:09;;;;;;;3.88;3.00;;;8.50;67.60;;;;;;5016619;28;20056;-67
2021/05/30 04:09:36;;;;;;;3.10;2.80;;;8.50;67.70;;;;;;5012176;28;20037;-66
2021/05/30 04:12:02;;;;;;;3.00;2.70;;;8.50;67.90;;;;;;5010608;28;20045;-66
2021/05/30 04:14:28;;;;;;;2.83;2.63;;;8.50;68.00;;;;;;5018207;28;20051;-64
2021/05/30 04:16:53;;;;;;;2.60;2.40;;;8.50;68.00;;;;;;5017349;28;20151;-65
2021/05/30 04:19:19;;;;;;;4.25;2.53;;;8.50;68.10;;;;;;5015418;28;20035;-64
2021/05/30 04:21:47;;;;;;;2.85;2.60;;;8.40;68.30;;;;;;5015353;28;20038;-64
2021/05/30 04:24:17;;;;;;;2.70;2.50;;;8.40;68.50;;;;;;5013913;28;20045;-65
2021/05/30 04:26:43;;;;;;;3.05;2.75;;;8.40;68.90;;;;;;5013605;28;20046;-65
2021/05/30 04:29:08;;;;;;;3.30;2.65;;;8.40;68.70;;;;;;5024446;28;20038;-65
2021/05/30 04:31:34;;;;;;;3.00;2.70;;;8.40;69.00;;;;;;5016786;28;20079;-65
2021/05/30 04:33:59;;;;;;;3.45;2.50;;;8.30;69.30;;;;;;5017923;28;20068;-65
2021/05/30 04:36:30;;;;;;;3.15;2.85;;;8.30;69.50;;;;;;5014584;28;20030;-64
2021/05/30 04:38:55;;;;;;;3.90;3.22;;;8.30;69.70;;;;;;5014839;28;20421;-64
2021/05/30 04:41:21;;;;;;;4.30;3.13;;;8.40;69.70;;;;;;5011933;28;20029;-66
2021/05/30 04:43:47;;;;;;;3.60;2.90;;;8.40;69.90;;;;;;5012664;28;21623;-65
2021/05/30 04:46:17;;;;;;;4.88;3.67;;;8.50;70.40;;;;;;5014217;28;20042;-64
2021/05/30 04:48:42;;;;;;;3.30;3.00;;;8.50;70.90;;;;;;5015371;28;20048;-65
2021/05/30 04:51:14;;;;;;;3.90;3.50;;;8.50;70.80;;;;;;5013055;28;20079;-65
2021/05/30 04:53:41;;;;;;;3.75;3.35;;;8.60;71.20;;;;;;5014142;28;20105;-64
2021/05/30 04:56:10;;;;;;;3.63;3.30;;;8.70;71.60;;;;;;5015068;28;20037;-65
2021/05/30 04:58:39;;;;;;;4.13;3.72;;;8.80;71.90;;;;;;5016597;28;20034;-65
2021/05/30 05:01:08;;;;;;;4.68;3.35;;;8.90;72.30;;;;;;5013528;28;20036;-65
2021/05/30 05:03:39;;;;;;;3.83;3.42;;;9.00;72.50;;;;;;5014288;28;20052;-65
2021/05/30 05:06:09;;;;;;;4.55;3.83;;;9.00;72.30;;;;;;5013723;28;20489;-65
2021/05/30 05:08:39;;;;;;;5.43;3.90;;;9.10;72.60;;;;;;5014853;28;20180;-64
2021/05/30 05:11:08;;;;;;;4.00;3.58;;;9.20;72.40;;;;;;5012234;28;20400;-66
2021/05/30 05:13:36;;;;;;;4.18;3.63;;;9.40;72.50;;;;;;5016494;28;20485;-66
2021/05/30 05:16:02;;;;;;;4.07;3.75;;;9.40;72.40;;;;;;5013227;28;20124;-64
2021/05/30 05:18:30;;;;;;;4.95;4.20;;;9.50;72.40;;;;;;5009864;28;20100;-65
2021/05/30 05:20:59;;;;;;;5.18;3.67;;;9.60;73.10;;;;;;5012389;28;20153;-65
2021/05/30 05:23:25;;;;;;;4.20;3.80;;;9.70;72.60;;;;;;5017010;28;20026;-66
2021/05/30 05:25:53;;;;;;;5.82;4.32;;;9.80;72.50;;;;;;5010646;28;20037;-64
2021/05/30 05:28:19;;;;;;;5.05;4.55;;;9.90;72.40;;;;;;5013294;28;20101;-65
2021/05/30 05:30:45;;;;;;;5.97;3.88;;;10.00;72.10;;;;;;5010955;28;20564;-65
2021/05/30 05:33:15;;;;;;;4.32;3.92;;;10.10;72.00;;;;;;5013749;28;20044;-65
2021/05/30 05:35:43;;;;;;;4.18;3.78;;;10.20;72.10;;;;;;5014875;28;20120;-65
2021/05/30 05:38:11;;;;;;;5.57;4.05;;;10.40;71.70;;;;;;5015326;28;20030;-66
2021/05/30 05:40:40;;;;;;;3.90;3.60;;;10.50;71.60;;;;;;5013388;28;20114;-65
2021/05/30 05:43:08;;;;;;;4.05;3.65;;;10.60;71.40;;;;;;5014684;28;20121;-65
2021/05/30 05:45:37;;;;;;;3.95;3.65;;;10.70;71.40;;;;;;5013063;28;20584;-65
2021/05/30 05:48:09;;;;;;;4.53;3.90;;;10.80;71.30;;;;;;5013020;28;20037;-64
2021/05/30 05:50:40;;;;;;;4.28;3.88;;;10.80;71.70;;;;;;5012563;28;20061;-65
2021/05/30 05:53:10;;;;;;;4.50;3.90;;;11.00;71.50;;;;;;5017583;28;20042;-64
2021/05/30 05:55:41;;;;;;;4.65;4.15;;;11.10;71.10;;;;;;5016652;28;20034;-65
2021/05/30 05:58:09;;;;;;;4.68;3.88;;;11.20;71.00;;;;;;5014078;28;20038;-65
2021/05/30 06:00:35;;;;;;;4.53;3.83;;;11.30;70.70;;;;;;5014525;28;20121;-65
2021/05/30 06:03:03;;;;;;;4.65;4.20;;;11.40;71.30;;;;;;5006378;28;20102;-65
2021/05/30 06:05:32;;;;;;;4.63;4.10;;;11.50;70.30;;;;;;5012992;28;20572;-65
2021/05/30 06:08:02;;;;;;;4.65;4.18;;;11.60;70.20;;;;;;5016938;28;20045;-66
2021/05/30 06:10:30;;;;;;;4.82;3.88;;;11.70;69.90;;;;;;5014980;28;20579;-68
2021/05/30 06:13:01;;;;;;;5.35;4.25;;;11.90;70.10;;;;;;5016867;28;20083;-65
2021/05/30 06:15:32;;;;;;;6.32;4.30;;;11.90;70.10;;;;;;5017080;28;20022;-65
2021/05/30 06:18:08;;;;;;;4.45;4.05;;;12.10;69.90;;;;;;5015871;28;20033;-65
2021/05/30 06:20:35;;;;;;;4.15;3.75;;;12.10;69.70;;;;;;5014829;28;20034;-65
2021/05/30 06:23:06;;;;;;;4.65;4.18;;;12.30;69.40;;;;;;5017424;28;20516;-65
2021/05/30 06:25:34;;;;;;;4.90;4.50;;;12.40;69.70;;;;;;5016449;28;20057;-65
2021/05/30 06:28:03;;;;;;;4.30;3.90;;;12.50;69.30;;;;;;5009696;28;20038;-65
2021/05/30 06:30:36;;;;;;;3.85;3.55;;;12.60;69.10;;;;;;5011248;28;20421;-65
2021/05/30 06:33:07;;;;;;;4.15;3.70;;;12.70;68.70;;;;;;5007314;28;20030;-65
2021/05/30 06:35:35;;;;;;;4.82;3.78;;;12.80;68.30;;;;;;5014099;28;20037;-65
2021/05/30 06:38:05;;;;;;;6.15;3.55;;;12.90;68.30;;;;;;5018453;28;20041;-65
2021/05/30 06:40:35;;;;;;;4.03;3.63;;;13.00;67.50;;;;;;5014713;28;20029;-65
2021/05/30 06:43:06;;;;;;;4.47;3.42;;;13.10;67.20;;;;;;5008915;28;20771;-65
2021/05/30 06:45:35;;;;;;;3.58;3.28;;;13.20;66.90;;;;;;5015615;28;20501;-66
2021/05/30 06:48:01;;;;;;;5.20;3.42;;;13.30;66.40;;;;;;5016441;28;20117;-66
2021/05/30 06:50:31;;;;;;;4.07;3.50;;;13.30;66.00;;;;;;5016673;28;20173;-66
2021/05/30 06:52:56;;;;;;;3.63;3.22;;;13.40;65.90;;;;;;5014242;28;20051;-65
2021/05/30 06:55:23;;;;;;;3.38;3.08;;;13.50;65.90;;;;;;5014545;28;20479;-66
2021/05/30 06:57:52;;;;;;;3.63;3.05;;;13.60;66.60;;;;;;5015861;28;21017;-65
2021/05/30 07:00:18;;;;;;;3.42;3.13;;;13.70;65.40;;;;;;5013972;28;20041;-66
2021/05/30 07:02:44;;;;;;;3.53;3.15;;;13.80;65.20;;;;;;5016142;28;20040;-65
2021/05/30 07:05:12;;;;;;;3.35;3.05;;;13.90;64.80;;;;;;5007844;28;20041;-65
2021/05/30 07:07:40;;;;;;;3.80;3.33;;;14.00;64.50;;;;;;5016092;28;20038;-65
2021/05/30 07:10:10;;;;;;;3.08;2.78;;;14.00;64.10;;;;;;5012263;28;22097;-65
2021/05/30 07:12:38;;;;;;;3.40;3.10;;;14.10;63.80;;;;;;5014584;28;20033;-65
2021/05/30 07:15:04;;;;;;;3.83;3.33;;;14.20;63.80;;;;;;5017024;28;20124;-65
2021/05/30 07:17:34;;;;;;;3.05;2.83;;;14.30;63.30;;;;;;5017891;28;20038;-65
2021/05/30 07:20:02;;;;;;;4.28;2.97;;;14.40;62.80;;;;;;5016218;28;20037;-66
2021/05/30 07:22:28;;;;;;;5.32;2.92;;;14.50;62.80;;;;;;5016397;28;20038;-66
2021/05/30 07:24:58;;;;;;;3.78;2.75;;;14.60;62.70;;;;;;5021252;28;20041;-66
2021/05/30 07:27:28;;;;;;;3.17;2.88;;;14.70;62.40;;;;;;5016777;28;20467;-65
2021/05/30 07:30:00;;;;;;;2.88;2.65;;;14.80;62.00;;;;;;5017329;28;20041;-65
2021/05/30 07:32:31;;;;;;;2.97;2.67;;;14.80;61.80;;;;;;5023530;28;20124;-66
2021/05/30 07:34:56;;;;;;;3.10;2.80;;;14.90;61.60;;;;;;5015803;28;20022;-66
2021/05/30 07:37:24;;;;;;;2.72;2.47;;;15.00;61.30;;;;;;5017098;28;20099;-65
2021/05/30 07:39:50;;;;;;;3.33;2.70;;;15.10;60.80;;;;;;5024047;28;20512;-66
2021/05/30 07:42:18;;;;;;;3.03;2.72;;;15.20;60.90;;;;;;5022200;28;20041;-65
2021/05/30 07:44:44;;;;;;;2.25;2.05;;;15.30;60.70;;;;;;5016617;28;20083;-65
2021/05/30 07:47:09;;;;;;;2.47;2.28;;;15.40;60.30;;;;;;5016083;28;20129;-66
2021/05/30 07:49:37;;;;;;;2.53;2.25;;;15.50;59.70;;;;;;5019008;28;20110;-66
2021/05/30 07:52:09;;;;;;;3.00;2.70;;;15.60;59.40;;;;;;5017661;28;20121;-66
2021/05/30 07:54:37;;;;;;;2.70;2.50;;;15.70;59.10;;;;;;5017261;28;20022;-66
2021/05/30 07:57:10;;;;;;;2.70;2.35;;;15.80;59.30;;;;;;5016012;28;21418;-66
2021/05/30 07:59:38;;;;;;;2.72;2.35;;;15.80;58.60;;;;;;5014240;28;20026;-66
2021/05/30 08:02:06;;;;;;;3.53;2.70;;;15.90;58.60;;;;;;5014814;28;20049;-66
2021/05/30 08:04:32;;;;;;;3.15;2.25;;;16.00;57.90;;;;;;5017283;28;20026;-66
2021/05/30 08:06:59;;;;;;;3.03;2.67;;;16.10;58.10;;;;;;5016587;28;20033;-66
2021/05/30 08:09:30;;;;;;;2.58;2.38;;;16.10;57.80;;;;;;5019653;28;20033;-66
2021/05/30 08:11:58;;;;;;;3.00;2.40;;;16.20;57.60;;;;;;5014548;28;22290;-67
2021/05/30 08:14:28;;;;;;;2.45;2.20;;;16.30;57.10;;;;;;5028051;28;20473;-66
2021/05/30 08:16:58;;;;;;;2.40;2.20;;;16.40;57.20;;;;;;5015114;28;20030;-66
2021/05/30 08:19:26;;;;;;;2.22;1.90;;;16.50;57.30;;;;;;5016515;28;20030;-66
2021/05/30 08:21:56;;;;;;;2.10;2.00;;;16.60;56.60;;;;;;5013825;28;20116;-66
2021/05/30 08:24:29;;;;;;;2.20;2.00;;;16.70;56.30;;;;;;5014908;28;20049;-66
2021/05/30 08:26:56;;;;;;;2.33;2.03;;;16.80;55.70;;;;;;5016488;28;20105;-66
2021/05/30 08:29:27;;;;;;;2.28;2.08;;;16.90;55.90;;;;;;5015837;28;20120;-66
2021/05/30 08:31:55;;;;;;;1.98;1.60;;;16.90;55.10;;;;;;5016731;28;20575;-66
2021/05/30 08:34:28;;;;;;;2.58;2.00;;;17.10;55.10;;;;;;5015916;28;20065;-66
2021/05/30 08:36:56;;;;;;;3.45;1.80;;;17.10;54.40;;;;;;5013844;28;20033;-66
2021/05/30 08:39:22;;;;;;;2.15;1.60;;;17.30;53.90;;;;;;5012995;28;20113;-66
2021/05/30 08:41:51;;;;;;;2.17;1.80;;;17.40;53.90;;;;;;5015693;28;20125;-66
2021/05/30 08:44:21;;;;;;;1.95;1.63;;;17.50;53.30;;;;;;5015775;28;20540;-66
2021/05/30 08:46:46;;;;;;;1.88;1.60;;;17.50;52.80;;;;;;5012070;28;20064;-66
2021/05/30 08:49:12;;;;;;;1.55;1.42;;;17.60;52.70;;;;;;5015444;28;20041;-68
2021/05/30 08:51:42;;;;;;;1.50;1.40;;;17.70;52.30;;;;;;5014846;28;20038;-66
2021/05/30 08:54:12;;;;;;;1.55;1.42;;;17.80;51.90;;;;;;5015409;28;20033;-66
2021/05/30 08:56:39;;;;;;;1.92;1.48;;;17.90;51.00;;;;;;5015277;28;20117;-66
2021/05/30 08:59:14;;;;;;;1.58;1.48;;;18.00;51.10;;;;;;5014835;28;20053;-66
2021/05/30 09:01:46;;;;;;;;;;;18.10;50.20;;;;;;5015171;28;20119;-66
2021/05/30 09:04:14;;;;;;;1.27;1.17;;;18.10;51.50;;;;;;5018023;28;20388;-66
2021/05/30 09:06:45;;;;;;;1.30;1.20;;;18.20;50.90;;;;;;5021741;28;20037;-67
2021/05/30 09:09:16;;;;;;;2.53;1.00;;;18.30;50.00;;;;;;5018653;28;20041;-66
2021/05/30 09:11:45;;;;;;;1.25;1.15;;;18.30;49.70;;;;;;5015904;28;20050;-66
2021/05/30 09:14:27;;;;;;;1.50;1.30;;;18.40;49.50;;;;;;5024254;28;20034;-66
2021/05/30 09:17:02;;;;;;;5.70;1.20;;;18.50;47.60;;;;;;5018315;28;20040;-66
2021/05/30 09:19:40;;;;;;;2.22;1.40;;;18.60;47.40;;;;;;5013761;28;20033;-66
2021/05/30 09:22:31;;;;;;;2.03;1.20;;;18.60;47.50;;;;;;5017215;28;20092;-66
2021/05/30 09:25:09;;;;;;;4.03;1.50;;;18.70;47.30;;;;;;5016360;28;20037;-67
2021/05/30 09:28:01;;;;;;;3.42;1.95;;;18.90;47.10;;;;;;5016001;28;20037;-66
2021/05/30 09:30:36;;;;;;;2.28;1.60;;;19.00;47.70;;;;;;5018181;28;20061;-66
2021/05/30 09:33:12;;;;;;;1.40;1.30;;;19.10;47.10;;;;;;5013905;28;20405;-66
2021/05/30 09:35:37;;;;;;;1.55;1.20;;;19.10;47.00;;;;;;5015595;28;20029;-66
2021/05/30 09:38:08;;;;;;;1.52;1.33;;;19.20;47.00;;;;;;5014406;28;20073;-63
2021/05/30 09:40:48;;;;;;;1.38;1.20;;;19.30;46.30;;;;;;5016485;28;20443;-66
2021/05/30 09:43:20;;;;;;;1.48;1.20;;;19.40;45.20;;;;;;5017167;28;20076;-67
2021/05/30 09:46:01;;;;;;;1.15;1.05;;;19.50;45.60;;;;;;5031071;28;20038;-66
2021/05/30 09:48:30;;;;;;;1.88;1.45;;;19.60;44.90;;;;;;5015156;28;20033;-66
2021/05/30 09:51:06;;;;;;;2.25;1.48;;;19.70;46.30;;;;;;5018633;28;20517;-67
2021/05/30 09:53:40;;;;;;;1.33;1.23;;;19.80;45.70;;;;;;5009501;28;20175;-67
2021/05/30 09:56:27;;;;;;;1.40;1.30;;;19.80;45.70;;;;;;5014657;28;20536;-67
2021/05/30 09:58:53;;;;;;;2.05;1.27;;;19.90;43.40;;;;;;5012270;28;20037;-66
2021/05/30 10:01:19;;;;;;;1.52;1.20;;;19.90;45.60;;;;;;5018191;28;20056;-67
2021/05/30 10:03:47;;;;;;;1.48;1.30;;;19.90;45.50;;;;;;5015984;28;20057;-67
2021/05/30 10:06:15;;;;;;;2.95;1.40;;;19.90;44.70;;;;;;5021675;28;20022;-66
2021/05/30 10:08:41;;;;;;;1.85;1.45;;;19.90;44.00;;;;;;5015966;28;20052;-66
2021/05/30 10:11:07;;;;;;;2.05;1.13;;;20.00;44.80;;;;;;5013883;28;20034;-66
2021/05/30 10:13:33;;;;;;;1.35;1.25;;;20.00;45.00;;;;;;5016170;28;20036;-66
2021/05/30 10:16:02;;;;;;;1.50;1.40;;;20.00;44.60;;;;;;5018743;28;20386;-67
2021/05/30 10:18:39;;;;;;;1.45;1.35;;;20.10;44.20;;;;;;5016770;28;20060;-67
2021/05/30 10:21:09;;;;;;;1.85;1.50;;;20.20;43.40;;;;;;5015489;28;20536;-67
2021/05/30 10:23:41;;;;;;;3.50;1.90;;;20.20;44.10;;;;;;5014913;28;20050;-66
2021/05/30 10:26:23;;;;;;;2.60;1.40;;;20.20;43.80;;;;;;5018972;28;20064;-66
2021/05/30 10:28:49;;;;;;;2.30;1.13;;;20.20;43.60;;;;;;5016783;28;20041;-66
2021/05/30 10:31:27;;;;;;;1.60;1.50;;;20.20;44.00;;;;;;5016937;28;20038;-66
2021/05/30 10:34:17;;;;;;;1.90;1.70;;;20.20;43.00;;;;;;5014269;28;20030;-67
2021/05/30 10:37:06;;;;;;;2.05;1.67;;;20.10;42.70;;;;;;5015979;28;20092;-66
2021/05/30 10:39:37;;;;;;;1.75;1.63;;;20.00;43.40;;;;;;5017309;28;20034;-67
2021/05/30 10:42:25;;;;;;;1.58;1.40;;;19.90;43.90;;;;;;5015442;28;20030;-67
2021/05/30 10:45:04;;;;;;;2.15;1.40;;;19.80;42.50;;;;;;5015726;28;20034;-66
2021/05/30 10:47:42;;;;;;;1.75;1.50;;;19.80;42.40;;;;;;5017239;28;20140;-66
2021/05/30 10:50:11;;;;;;;1.48;1.38;;;19.70;41.40;;;;;;5017737;28;20045;-67
2021/05/30 10:52:43;;;;;;;2.10;1.90;;;19.70;42.80;;;;;;5016194;28;20038;-67
2021/05/30 10:55:25;;;;;;;2.05;1.50;;;19.60;41.90;;;;;;5020572;28;20025;-66
2021/05/30 10:57:51;;;;;;;1.60;1.50;;;19.60;41.80;;;;;;5026031;28;20548;-67
2021/05/30 11:00:17;;;;;;;2.22;1.50;;;19.50;42.00;;;;;;5017695;28;20424;-68
2021/05/30 11:03:09;;;;;;;2.00;1.40;;;19.40;42.30;;;;;;5018705;28;20728;-67
2021/05/30 11:05:54;;;;;;;2.25;1.63;;;19.30;41.90;;;;;;5013707;28;20038;-66
2021/05/30 11:08:37;;;;;;;2.08;1.75;;;19.30;41.90;;;;;;5018375;28;20034;-67
2021/05/30 11:11:24;;;;;;;1.80;1.70;;;19.20;41.30;;;;;;5016691;28;20045;-66
2021/05/30 11:13:57;;;;;;;2.63;1.80;;;19.20;42.00;;;;;;5020433;28;20037;-67
2021/05/30 11:16:25;;;;;;;1.83;1.70;;;19.20;43.00;;;;;;5020159;28;20026;-67
2021/05/30 11:19:03;;;;;;;1.70;1.60;;;19.20;43.00;;;;;;5020413;28;20036;-67
2021/05/30 11:21:36;;;;;;;2.75;1.90;;;19.30;42.60;;;;;;5020197;28;20238;-67
2021/05/30 11:24:07;;;;;;;3.25;1.65;;;19.30;42.60;;;;;;5018989;28;20037;-66
2021/05/30 11:26:33;;;;;;;1.70;1.60;;;19.30;42.20;;;;;;5019073;28;20414;-66
2021/05/30 11:29:02;;;;;;;2.13;1.73;;;19.40;42.90;;;;;;5017764;28;20465;-67
2021/05/30 11:31:30;;;;;;;1.95;1.75;;;19.40;42.70;;;;;;5017984;28;20038;-67
2021/05/30 11:34:03;;;;;;;2.22;1.67;;;19.40;42.90;;;;;;5025706;28;20037;-66
2021/05/30 11:36:32;;;;;;;2.75;2.00;;;19.40;42.80;;;;;;5018051;28;20034;-67
2021/05/30 11:39:08;;;;;;;2.22;2.00;;;19.50;42.80;;;;;;5019988;28;20039;-66
2021/05/30 11:41:40;;;;;;;2.95;1.73;;;19.50;41.90;;;;;;5018322;28;20521;-67
2021/05/30 11:44:19;;;;;;;5.40;1.95;;;19.50;42.60;;;;;;5018154;28;20038;-66
2021/05/30 11:46:49;;;;;;;2.03;1.90;;;19.50;41.90;;;;;;5018141;28;20045;-66
2021/05/30 11:49:21;;;;;;;2.28;2.08;;;19.50;42.30;;;;;;5018969;28;20088;-67
2021/05/30 11:51:48;;;;;;;2.75;1.90;;;19.50;43.00;;;;;;5020649;28;20452;-67
2021/05/30 11:54:16;;;;;;;3.10;1.90;;;19.40;43.60;;;;;;5019954;28;20034;-66
2021/05/30 11:56:45;;;;;;;2.63;1.90;;;19.40;42.60;;;;;;5016909;28;20062;-66
2021/05/30 11:59:13;;;;;;;2.83;2.10;;;19.30;42.70;;;;;;5016681;28;20179;-66
2021/05/30 12:01:53;;;;;;;2.42;2.03;;;19.30;43.20;;;;;;5019452;28;20037;-67
2021/05/30 12:04:21;;;;;;;2.28;1.75;;;19.30;43.00;;;;;;5018902;28;20041;-67
2021/05/30 12:06:52;;;;;;;2.05;1.85;;;19.30;43.10;;;;;;5018164;28;20041;-66
2021/05/30 12:09:21;;;;;;;2.00;1.80;;;19.30;43.10;;;;;;5018426;28;20116;-67
2021/05/30 12:11:49;;;;;;;1.85;1.75;;;19.40;43.10;;;;;;5016881;28;20046;-67
2021/05/30 12:14:17;;;;;;;1.90;1.60;;;19.40;43.10;;;;;;5017326;28;20058;-66
2021/05/30 12:16:50;;;;;;;1.98;1.80;;;19.50;43.50;;;;;;5017362;28;20041;-67
2021/05/30 12:19:18;;;;;;;3.13;2.10;;;19.60;43.30;;;;;;5018446;28;20183;-67
2021/05/30 12:21:50;;;;;;;2.50;1.70;;;19.60;43.30;;;;;;5016929;28;20042;-66
2021/05/30 12:24:19;;;;;;;2.67;1.67;;;19.70;43.40;;;;;;5017658;28;20026;-66
2021/05/30 12:26:48;;;;;;;4.72;1.98;;;19.80;43.60;;;;;;5017931;28;20065;-67
2021/05/30 12:29:19;;;;;;;2.50;1.48;;;19.90;42.50;;;;;;5017307;28;20034;-66
2021/05/30 12:31:47;;;;;;;1.60;1.50;;;20.00;41.60;;;;;;5017987;28;20514;-67
2021/05/30 12:34:16;;;;;;;2.42;1.52;;;20.10;41.50;;;;;;5018781;28;20080;-67
2021/05/30 12:36:50;;;;;;;3.13;1.58;;;20.10;40.50;;;;;;5015751;28;20052;-67
2021/05/30 12:39:26;;;;;;;1.75;1.65;;;20.20;40.60;;;;;;5016332;28;20033;-66
2021/05/30 12:42:06;;;;;;;2.90;1.83;;;20.30;40.90;;;;;;5016750;28;20050;-67
2021/05/30 12:44:41;;;;;;;3.90;1.92;;;20.40;40.30;;;;;;5017835;28;20437;-67
2021/05/30 12:47:11;;;;;;;;;;;20.50;40.90;;;;;;5016823;28;20068;-67
2021/05/30 12:49:42;;;;;;;2.83;1.75;;;20.60;42.10;;;;;;5016951;28;19917;-66
2021/05/30 12:52:13;;;;;;;2.22;1.70;;;20.60;41.80;;;;;;5016565;28;20124;-66
2021/05/30 12:54:41;;;;;;;1.75;1.60;;;20.60;41.50;;;;;;5017710;28;20049;-67
2021/05/30 12:57:08;;;;;;;1.50;1.40;;;20.60;40.80;;;;;;5014993;28;20034;-68
2021/05/30 12:59:46;;;;;;;3.60;1.70;;;20.50;40.10;;;;;;5014301;28;20513;-66
2021/05/30 13:02:18;;;;;;;2.70;1.60;;;20.50;39.30;;;;;;5016320;28;20488;-67
2021/05/30 13:04:45;;;;;;;2.45;1.40;;;20.50;40.10;;;;;;5017490;28;20045;-67
2021/05/30 13:07:14;;;;;;;2.30;1.40;;;20.50;40.50;;;;;;5016260;28;20083;-67